메인 페이지
METAR-TAF:

METAR-TAF

공항 :

하이파, 이스라엘

위도: 32-48N, 경도: 035-02E, 고도: 8m

현재 날씨관측

예보는 17분 전, 08:50시(UTC)에 발표되었습니다.
남남동9kt
온도 17°C
습도 82%
기압 1013 hPa
시정 10km 이상
고도 3500ft 상공 구름 조금
고도 4400ft 상공 구름 보통

METAR: LLHA 090850Z 16009KT 9999 FEW035 SCT044 17/14 Q1013 RMK BKN094

시각: 11:07 (09:07 UTC)

예보

예보는 3 시간 50분 전, 05:17시(UTC)에 발표되었습니다.
예보 대상 시간: 09일 06시부터 10일 06시까지 (UTC)
12kt
시정: 7000m
고도 1200ft 상공 구름 조금
고도 3000ft 상공 구름 보통
일시적
09일 06시부터 09일 14시까지 (UTC)
남서18kt, 순간 최대 풍속 28kt
시정: 5000m
고도 1500ft 상공 구름 조금
고도 2000ft 상공 구름 조금, 적란운.
고도 2500ft 상공 구름 많음
뇌우, 비
확률 40%
09일 14시부터 10일 06시까지 (UTC)
고도 2000ft 상공 구름 조금, 적란운.
고도 2500ft 상공 구름 많음

TAF: LLHA 090517Z 0906/1006 19012KT 7000 FEW012 SCT030 TEMPO 0906/0914 23018G28KT 5000 TSRA FEW015 FEW020CB BKN025 PROB40 0914/1006 RA FEW020CB BKN025 TX18/0911Z TN14/1004Z

4,000개 이상의 공항 관측 자료 및 예보 (METAR 및 TAF 보고).

지도상에서 검색 가능한 기상관측소가 노란 점과 빨간 점으로 표시되어 있습니다.

기상관측소 명을 보려면 표시 위로 마우스를 이동하세요.

날씨 관측과 예보를 보려면 클릭하세요.

지도 변경 : 확대하려면 엑스 표시가 있는 녹색 버튼, 축소하려면 빼기 표시가 있는 녹색 버튼, 다음 페이지의 지도를 보려면 녹색 화살표를 클릭하세요.


METAR-TAF: